CheckWX is a tool to help pilots better visualize weather data.  It is not intended as a substitute for an official pre-flight weather briefing.

08:41:10 UTC

PAUN TAF
Unalakleet Airport
Unalakleet, Alaska, USA
PAUN 051122Z 0512/0612 22030G42KT 3SM -SN BR SCT015 OVC025 FM051400 23030G43KT 1/2SM -SN BLSN OVC008 FM052100 22026G37KT 2SM -SN OVC015 FM060400 25025G35KT 4SM -SN BKN015 OVC035

Apr-5@
12:00 UTC

Apr-5 @ 12:00 UTC

Apr-5@
14:00 UTC

Apr-5 @ 14:00 UTC

TAF PAUN 051122Z 0512/0612 22030G42KT 3SM -SN BR SCT015 OVC025

Expired

Wind
  • 220° at 30 KTS
  • {Gusting to 42 KTS
Conditions
Light Snow, Mist
Cloud Levels
  • Scattered at 1,500' AGL
  • Overcast at 2,500' AGL

Apr-5@
14:00 UTC

Apr-5 @ 14:00 UTC

Apr-5@
21:00 UTC

Apr-5 @ 21:00 UTC

FM051400 23030G43KT 1/2SM -SN BLSN OVC008

Expired

Wind
  • 230° at 30 KTS
  • {Gusting to 43 KTS
Conditions
Light Snow, Blowing Snow
Cloud Levels
  • Overcast at 800' AGL

Apr-5@
21:00 UTC

Apr-5 @ 21:00 UTC

Apr-6@
04:00 UTC

Apr-6 @ 04:00 UTC

FM052100 22026G37KT 2SM -SN OVC015

Expired

Wind
  • 220° at 26 KTS
  • {Gusting to 37 KTS
Conditions
Light Snow
Cloud Levels
  • Overcast at 1,500' AGL

Apr-6@
04:00 UTC

Apr-6 @ 04:00 UTC

Apr-6@
12:00 UTC

Apr-6 @ 12:00 UTC

FM060400 25025G35KT 4SM -SN BKN015 OVC035

From

From Standard forecast or significant change

Wind
  • 250° at 25 KTS
  • {Gusting to 35 KTS
Conditions
Light Snow
Cloud Levels
  • Broken at 1,500' AGL
  • Overcast at 3,500' AGL